Terminal Aerodrome Forecast
Issued by NWS Greer, SC

Home | Current Version | Previous Version | Text Only | Print | Product List | Glossary On
Versions: 1 2 3 4 5 6 7 8 9 10 11 12 13 14 15 16 17 18 19 20 21 22 23
000
FTUS42 KGSP 280358 AAA
TAFCLT
TAF AMD
KCLT 280358Z 2804/2824 18005KT P6SM VCSH BKN080 OVC200
      TEMPO 2804/2806 -TSRA OVC040CB
     FM281000 19007KT P6SM BKN012 BKN050
     FM281400 21007KT P6SM BKN020
     FM281700 23009KT P6SM SCT050 BKN250 PROB30 2817/2821 4SM -TSRA
      BKN040CB=

USA.gov is the U.S. government's official web portal to all federal, state and local government web resources and services.